createdAt,value
2023-05-23T00:00:52.615Z,18.36
2023-05-23T00:03:25.332Z,18.38
2023-05-23T00:05:55.298Z,18.43
2023-05-23T00:08:25.371Z,18.43
2023-05-23T00:10:54.993Z,18.44
2023-05-23T00:13:24.402Z,18.44
2023-05-23T00:15:52.337Z,18.40
2023-05-23T00:18:24.965Z,18.36
2023-05-23T00:20:54.372Z,18.33
2023-05-23T00:23:25.419Z,18.29
2023-05-23T00:25:54.536Z,18.31
2023-05-23T00:28:22.821Z,18.31
2023-05-23T00:30:53.170Z,18.29
2023-05-23T00:33:22.253Z,18.31
2023-05-23T00:35:50.208Z,18.27
2023-05-23T00:38:23.115Z,18.23
2023-05-23T00:40:53.878Z,18.28
2023-05-23T00:43:23.056Z,18.28
2023-05-23T00:45:50.957Z,18.24
2023-05-23T00:48:20.811Z,18.26
2023-05-23T00:50:49.540Z,18.26
2023-05-23T00:53:21.751Z,18.20
2023-05-23T00:55:51.340Z,18.20
2023-05-23T00:58:20.834Z,18.18
2023-05-23T01:00:54.860Z,18.23
2023-05-23T01:03:24.028Z,18.26
2023-05-23T01:05:52.113Z,18.23
2023-05-23T01:08:24.172Z,18.19
2023-05-23T01:10:56.112Z,18.22
2023-05-23T01:13:33.883Z,18.20
2023-05-23T01:16:14.738Z,18.16
2023-05-23T01:18:54.759Z,18.14
2023-05-23T01:21:27.869Z,18.12
2023-05-23T01:24:23.165Z,18.16
2023-05-23T01:27:06.931Z,18.16
2023-05-23T01:29:40.006Z,18.09
2023-05-23T01:32:11.610Z,18.09
2023-05-23T01:34:41.216Z,18.10
2023-05-23T01:37:20.960Z,18.11
2023-05-23T01:39:50.993Z,18.08
2023-05-23T01:42:29.548Z,18.04
2023-05-23T01:45:00.330Z,18.05
2023-05-23T01:47:34.387Z,17.99
2023-05-23T01:50:11.435Z,17.91
2023-05-23T01:52:41.045Z,17.88
2023-05-23T01:55:23.790Z,17.90
2023-05-23T01:57:57.783Z,17.84
2023-05-23T02:00:28.427Z,17.80
2023-05-23T02:02:58.197Z,17.81
2023-05-23T02:05:30.399Z,17.86
2023-05-23T02:08:03.647Z,17.92
2023-05-23T02:10:36.752Z,17.92
2023-05-23T02:13:08.173Z,17.86
2023-05-23T02:15:44.421Z,17.80
2023-05-23T02:18:13.596Z,17.81
2023-05-23T02:20:43.224Z,17.83
2023-05-23T02:23:14.116Z,17.82
2023-05-23T02:25:45.295Z,17.83
2023-05-23T02:28:15.973Z,17.83
2023-05-23T02:30:54.146Z,17.84
2023-05-23T02:33:26.304Z,17.81
2023-05-23T02:35:55.456Z,17.81
2023-05-23T02:38:23.997Z,17.82
2023-05-23T02:40:54.254Z,17.82
2023-05-23T02:43:29.731Z,17.84
2023-05-23T02:46:00.285Z,17.77
2023-05-23T02:48:30.122Z,17.71
2023-05-23T02:51:00.097Z,17.66
2023-05-23T02:53:34.230Z,17.63
2023-05-23T02:56:05.251Z,17.61
2023-05-23T02:58:40.100Z,17.62
2023-05-23T03:01:12.733Z,17.63
2023-05-23T03:03:42.667Z,17.55
2023-05-23T03:06:14.921Z,17.58
2023-05-23T03:08:51.616Z,17.55
2023-05-23T03:11:21.473Z,17.53
2023-05-23T03:13:52.851Z,17.53
2023-05-23T03:16:26.014Z,17.48
2023-05-23T03:18:56.152Z,17.49
2023-05-23T03:21:24.407Z,17.52
2023-05-23T03:23:52.373Z,17.52
2023-05-23T03:26:23.985Z,17.51
2023-05-23T03:28:52.996Z,17.53
2023-05-23T03:31:27.341Z,17.54
2023-05-23T03:34:12.658Z,17.55
2023-05-23T03:36:41.312Z,17.53
2023-05-23T03:39:09.230Z,17.50
2023-05-23T03:41:39.121Z,17.52
2023-05-23T03:44:10.491Z,17.55
2023-05-23T03:46:42.474Z,17.58
2023-05-23T03:49:10.470Z,17.59
2023-05-23T03:51:38.448Z,17.56
2023-05-23T03:54:06.393Z,17.53
2023-05-23T03:56:34.780Z,17.53
2023-05-23T03:59:02.519Z,17.56
2023-05-23T04:01:30.222Z,17.55
2023-05-23T04:04:00.443Z,17.54
2023-05-23T04:06:31.281Z,17.52
2023-05-23T04:08:58.984Z,17.52
2023-05-23T04:11:26.718Z,17.53
2023-05-23T04:13:54.436Z,17.55
2023-05-23T04:16:24.056Z,17.48
2023-05-23T04:18:52.042Z,17.43
2023-05-23T04:21:21.166Z,17.41
2023-05-23T04:23:48.893Z,17.36
2023-05-23T04:26:16.480Z,17.36
2023-05-23T04:28:46.204Z,17.39
2023-05-23T04:31:13.830Z,17.42
2023-05-23T04:33:41.866Z,17.46
2023-05-23T04:36:11.451Z,17.50
2023-05-23T04:38:41.257Z,17.49
2023-05-23T04:41:10.379Z,17.49
2023-05-23T04:43:42.392Z,17.51
2023-05-23T04:46:10.959Z,17.46
2023-05-23T04:48:39.366Z,17.48
2023-05-23T04:51:07.885Z,17.49
2023-05-23T04:53:36.901Z,17.49
2023-05-23T04:56:06.136Z,17.55
2023-05-23T04:58:33.856Z,17.57
2023-05-23T05:01:01.532Z,17.55
2023-05-23T05:03:29.130Z,17.52
2023-05-23T05:05:57.162Z,17.50
2023-05-23T05:08:24.759Z,17.50
2023-05-23T05:10:52.300Z,17.51
2023-05-23T05:13:21.222Z,17.53
2023-05-23T05:15:48.798Z,17.53
2023-05-23T05:18:16.808Z,17.54
2023-05-23T05:20:44.365Z,17.52
2023-05-23T05:23:12.048Z,17.53
2023-05-23T05:25:41.249Z,17.54
2023-05-23T05:28:09.088Z,17.56
2023-05-23T05:30:38.814Z,17.54
2023-05-23T05:33:07.730Z,17.51
2023-05-23T05:35:35.745Z,17.54
2023-05-23T05:38:04.797Z,17.53
2023-05-23T05:40:32.663Z,17.50
2023-05-23T05:43:00.272Z,17.48
2023-05-23T05:45:27.833Z,17.50
2023-05-23T05:47:56.811Z,17.54
2023-05-23T05:50:24.543Z,17.55
2023-05-23T05:52:52.094Z,17.52
2023-05-23T05:55:19.790Z,17.54
2023-05-23T05:57:47.379Z,17.54
2023-05-23T06:00:16.062Z,17.52
2023-05-23T06:02:44.192Z,17.48
2023-05-23T06:05:13.320Z,17.46
2023-05-23T06:07:41.853Z,17.47
2023-05-23T06:10:12.773Z,17.47
2023-05-23T06:12:40.653Z,17.48
2023-05-23T06:15:09.592Z,17.51
2023-05-23T06:17:37.268Z,17.55
2023-05-23T06:20:05.926Z,17.56
2023-05-23T06:22:35.024Z,17.58
2023-05-23T06:25:02.626Z,17.59
2023-05-23T06:27:30.173Z,17.61
2023-05-23T06:29:57.724Z,17.61
2023-05-23T06:32:25.459Z,17.62
2023-05-23T06:34:53.078Z,17.63
2023-05-23T06:37:20.610Z,17.68
2023-05-23T06:39:49.511Z,17.70
2023-05-23T06:42:17.133Z,17.73
2023-05-23T06:44:44.724Z,17.72
2023-05-23T06:47:12.349Z,17.70
2023-05-23T06:49:39.931Z,17.71
2023-05-23T06:52:07.487Z,17.69
2023-05-23T06:54:35.095Z,17.67
2023-05-23T06:57:04.085Z,17.65
2023-05-23T06:59:31.627Z,17.64
2023-05-23T07:01:59.423Z,17.62
2023-05-23T07:04:26.968Z,17.65
2023-05-23T07:06:54.735Z,17.67
2023-05-23T07:09:22.419Z,17.73
2023-05-23T07:11:50.048Z,17.79
2023-05-23T07:14:20.718Z,17.86
2023-05-23T07:16:48.284Z,17.94
2023-05-23T07:19:15.948Z,18.01
2023-05-23T07:21:43.519Z,18.04
2023-05-23T07:24:11.079Z,18.07
2023-05-23T07:26:38.676Z,18.07
2023-05-23T07:29:07.051Z,18.09
2023-05-23T07:31:36.154Z,18.12
2023-05-23T07:34:03.754Z,18.12
2023-05-23T07:36:34.035Z,18.12
2023-05-23T07:39:02.247Z,18.12
2023-05-23T07:41:29.812Z,18.17
2023-05-23T07:43:57.368Z,18.18
2023-05-23T07:46:24.936Z,18.16
2023-05-23T07:48:53.863Z,18.15
2023-05-23T07:51:21.947Z,18.16
2023-05-23T07:53:49.526Z,18.16
2023-05-23T07:56:17.151Z,18.17
2023-05-23T07:58:44.689Z,18.17
2023-05-23T08:01:12.755Z,18.15
2023-05-23T08:03:40.393Z,18.13
2023-05-23T08:06:09.507Z,18.09
2023-05-23T08:08:37.932Z,18.08
2023-05-23T08:11:05.719Z,18.12
2023-05-23T08:13:33.299Z,18.20
2023-05-23T08:16:00.876Z,18.35
2023-05-23T08:18:28.561Z,18.50
2023-05-23T08:20:56.164Z,18.67
2023-05-23T08:23:25.455Z,18.79
2023-05-23T08:25:54.000Z,18.88
2023-05-23T08:28:21.576Z,18.94
2023-05-23T08:30:49.284Z,18.99
2023-05-23T08:33:17.266Z,19.00
2023-05-23T08:35:44.875Z,19.03
2023-05-23T08:38:13.114Z,19.06
2023-05-23T08:40:46.440Z,19.10
2023-05-23T08:43:14.303Z,19.14
2023-05-23T08:45:42.572Z,19.21
2023-05-23T08:48:11.777Z,19.27
2023-05-23T08:50:41.678Z,19.38
2023-05-23T08:53:10.299Z,19.47
2023-05-23T08:55:39.506Z,19.53
2023-05-23T08:58:08.724Z,19.59
2023-05-23T09:00:36.606Z,19.62
2023-05-23T09:03:04.727Z,19.60
2023-05-23T09:05:32.350Z,19.67
2023-05-23T09:07:59.941Z,19.82
2023-05-23T09:10:29.912Z,19.90
2023-05-23T09:12:58.401Z,19.92
2023-05-23T09:15:27.401Z,19.92
2023-05-23T09:17:55.116Z,19.88
2023-05-23T09:20:23.060Z,19.83
2023-05-23T09:22:50.675Z,19.78
2023-05-23T09:25:18.269Z,19.69
2023-05-23T09:27:48.069Z,19.63
2023-05-23T09:30:16.539Z,19.60
2023-05-23T09:33:00.731Z,19.55
2023-05-23T09:35:30.730Z,19.48
2023-05-23T09:38:00.191Z,19.40
2023-05-23T09:40:31.935Z,19.38
2023-05-23T09:43:04.730Z,19.39
2023-05-23T09:45:33.138Z,19.39
2023-05-23T09:48:02.548Z,19.41
2023-05-23T09:50:34.132Z,19.46
2023-05-23T09:53:02.130Z,19.52
2023-05-23T09:55:29.728Z,19.63
2023-05-23T09:58:00.108Z,19.79
2023-05-23T10:00:28.497Z,19.88
2023-05-23T10:03:01.900Z,19.93
2023-05-23T10:05:36.287Z,19.92
2023-05-23T10:08:10.710Z,19.91
2023-05-23T10:11:22.403Z,19.99
2023-05-23T10:13:51.195Z,20.07
2023-05-23T10:32:14.774Z,20.37
2023-05-23T11:02:01.309Z,20.44
2023-05-23T11:06:03.541Z,20.34
2023-05-23T11:51:38.095Z,20.16
2023-05-23T11:54:07.890Z,20.13
2023-05-23T11:56:41.166Z,20.09
2023-05-23T11:59:09.034Z,20.11
2023-05-23T12:01:38.483Z,20.12
2023-05-23T12:04:12.624Z,20.07
2023-05-23T12:06:41.608Z,20.05
2023-05-23T12:09:12.607Z,20.10
2023-05-23T12:11:41.445Z,20.12
2023-05-23T12:14:09.249Z,20.11
2023-05-23T12:16:37.769Z,20.13
2023-05-23T12:19:07.538Z,20.14
2023-05-23T12:21:45.698Z,20.19
2023-05-23T12:24:17.236Z,20.25
2023-05-23T12:26:49.374Z,20.36
2023-05-23T12:29:17.742Z,20.46
2023-05-23T12:31:45.455Z,20.53
2023-05-23T12:34:14.736Z,20.62
2023-05-23T12:36:49.054Z,20.67
2023-05-23T12:39:25.766Z,20.71
2023-05-23T12:41:53.543Z,20.73
2023-05-23T12:44:21.126Z,20.73
2023-05-23T12:46:49.215Z,20.72
2023-05-23T12:49:16.989Z,20.65
2023-05-23T12:51:44.738Z,20.64
2023-05-23T12:54:12.337Z,20.64
2023-05-23T12:56:41.358Z,20.60
2023-05-23T12:59:08.877Z,20.58
2023-05-23T13:01:36.905Z,20.53
2023-05-23T13:04:04.570Z,20.56
2023-05-23T13:06:33.392Z,20.63
2023-05-23T13:09:01.888Z,20.69
2023-05-23T13:11:31.132Z,20.70
2023-05-23T13:14:00.125Z,20.74
2023-05-23T13:16:27.779Z,20.74
2023-05-23T13:18:55.599Z,20.75
2023-05-23T13:21:23.299Z,20.80
2023-05-23T13:23:50.898Z,20.78
2023-05-23T13:26:18.433Z,20.76
2023-05-23T13:28:46.029Z,20.74
2023-05-23T13:31:15.096Z,20.67
2023-05-23T13:33:42.928Z,20.57
2023-05-23T13:36:10.473Z,20.54
2023-05-23T13:38:38.443Z,20.56
2023-05-23T13:41:06.030Z,20.53
2023-05-23T13:43:33.557Z,20.47
2023-05-23T13:46:02.032Z,20.39
2023-05-23T13:48:30.990Z,20.35
2023-05-23T13:50:58.865Z,20.33
2023-05-23T13:53:26.478Z,20.31
2023-05-23T13:55:54.810Z,20.31
2023-05-23T13:58:22.368Z,20.33
2023-05-23T14:00:49.942Z,20.33
2023-05-23T14:03:19.299Z,20.32
2023-05-23T14:05:48.494Z,20.29
2023-05-23T14:08:16.293Z,20.26
2023-05-23T14:10:44.069Z,20.27
2023-05-23T14:13:12.014Z,20.26
2023-05-23T14:15:42.195Z,20.20
2023-05-23T14:18:10.143Z,20.12
2023-05-23T14:20:37.697Z,20.05
2023-05-23T14:23:06.552Z,20.00
2023-05-23T14:25:34.116Z,19.98
2023-05-23T14:28:01.726Z,19.99
2023-05-23T14:30:29.368Z,19.97
2023-05-23T14:32:56.998Z,19.92
2023-05-23T14:35:25.785Z,19.90
2023-05-23T14:37:53.338Z,19.90
2023-05-23T14:40:22.194Z,19.88
2023-05-23T14:42:49.717Z,19.86
2023-05-23T14:45:18.961Z,19.85
2023-05-23T14:47:46.881Z,19.84
2023-05-23T14:50:14.524Z,19.84
2023-05-23T14:52:42.087Z,19.85
2023-05-23T14:55:09.871Z,19.85
2023-05-23T14:57:39.273Z,19.85
2023-05-23T15:00:08.245Z,19.83
2023-05-23T15:02:35.861Z,19.84
2023-05-23T15:05:03.554Z,19.83
2023-05-23T15:07:31.220Z,19.81
2023-05-23T15:09:58.846Z,19.83
2023-05-23T15:12:26.610Z,19.81
2023-05-23T15:15:02.938Z,19.75
2023-05-23T15:17:31.114Z,19.73
2023-05-23T15:19:58.988Z,19.73
2023-05-23T15:24:59.432Z,19.73
2023-05-23T15:27:27.028Z,19.72
2023-05-23T15:29:55.895Z,19.74
2023-05-23T15:32:23.573Z,19.78
2023-05-23T15:34:51.412Z,19.80
2023-05-23T15:37:19.171Z,19.79
2023-05-23T15:39:46.981Z,19.78
2023-05-23T15:42:14.626Z,19.78
2023-05-23T15:44:42.232Z,19.73
2023-05-23T15:47:11.257Z,19.73
2023-05-23T15:49:38.808Z,19.72
2023-05-23T15:52:06.549Z,19.74
2023-05-23T15:54:34.107Z,19.77
2023-05-23T15:57:01.701Z,19.78
2023-05-23T15:59:29.213Z,19.72
2023-05-23T16:01:57.088Z,19.67
2023-05-23T16:04:26.086Z,19.65
2023-05-23T16:06:53.641Z,19.64
2023-05-23T16:09:21.154Z,19.65
2023-05-23T16:11:48.706Z,19.65
2023-05-23T16:14:16.284Z,19.63
2023-05-23T16:16:44.146Z,19.59
2023-05-23T16:19:11.832Z,19.57
2023-05-23T16:21:40.815Z,19.58
2023-05-23T16:24:08.396Z,19.58
2023-05-23T16:26:36.126Z,19.55
2023-05-23T16:29:03.659Z,19.53
2023-05-23T16:31:31.456Z,19.52
2023-05-23T16:33:59.549Z,19.50
2023-05-23T16:36:28.483Z,19.48
2023-05-23T16:38:57.981Z,19.46
2023-05-23T16:41:25.585Z,19.43
2023-05-23T16:43:53.121Z,19.41
2023-05-23T16:46:22.214Z,19.40
2023-05-23T16:48:50.315Z,19.40
2023-05-23T16:51:17.916Z,19.39
2023-05-23T16:53:45.577Z,19.37
2023-05-23T16:56:14.638Z,19.32
2023-05-23T17:01:24.691Z,19.33
2023-05-23T17:03:52.576Z,19.35
2023-05-23T17:06:20.389Z,19.37
2023-05-23T17:08:47.955Z,19.39
2023-05-23T17:11:16.960Z,19.37
2023-05-23T17:13:44.524Z,19.32
2023-05-23T17:16:12.513Z,19.29
2023-05-23T17:18:40.132Z,19.26
2023-05-23T17:21:07.678Z,19.24
2023-05-23T17:23:35.203Z,19.20
2023-05-23T17:26:02.802Z,19.17
2023-05-23T17:28:31.689Z,19.09
2023-05-23T17:30:59.357Z,19.02
2023-05-23T17:33:26.929Z,18.97
2023-05-23T17:35:54.509Z,18.91
2023-05-23T17:38:22.046Z,18.85
2023-05-23T17:40:49.627Z,18.84
2023-05-23T17:46:38.549Z,18.77
2023-05-23T17:49:07.203Z,18.76
2023-05-23T17:51:34.798Z,18.70
2023-05-23T17:56:50.613Z,18.53
2023-05-23T17:59:21.257Z,18.48
2023-05-23T18:01:53.793Z,18.44
2023-05-23T18:04:26.749Z,18.39
2023-05-23T18:06:59.639Z,18.35
2023-05-23T18:09:33.578Z,18.30
2023-05-23T18:12:04.483Z,18.22
2023-05-23T18:14:36.696Z,18.18
2023-05-23T18:17:12.382Z,18.14
2023-05-23T18:19:47.040Z,18.08
2023-05-23T18:22:16.511Z,17.99
2023-05-23T18:24:44.343Z,17.92
2023-05-23T18:27:11.900Z,17.90
2023-05-23T18:29:39.794Z,17.88
2023-05-23T18:32:08.880Z,17.78
2023-05-23T18:34:36.456Z,17.69
2023-05-23T18:37:04.032Z,17.63
2023-05-23T18:39:31.595Z,17.57
2023-05-23T18:41:59.515Z,17.52
2023-05-23T18:44:27.334Z,17.49
2023-05-23T18:46:55.627Z,17.44
2023-05-23T18:49:28.769Z,17.41
2023-05-23T18:52:00.007Z,17.39
2023-05-23T18:54:34.619Z,17.33
2023-05-23T18:57:04.826Z,17.28
2023-05-23T18:59:36.431Z,17.24
2023-05-23T19:02:05.296Z,17.17
2023-05-23T19:04:35.375Z,17.12
2023-05-23T19:07:04.536Z,17.10
2023-05-23T19:09:36.242Z,17.12
2023-05-23T19:12:03.952Z,17.15
2023-05-23T19:14:31.692Z,17.16
2023-05-23T19:17:00.096Z,17.14
2023-05-23T19:19:30.592Z,17.07
2023-05-23T19:22:00.797Z,17.02
2023-05-23T19:24:28.379Z,16.97
2023-05-23T19:26:56.328Z,16.97
2023-05-23T19:29:23.887Z,16.97
2023-05-23T19:31:51.515Z,16.95
2023-05-23T19:34:19.050Z,16.92
2023-05-23T19:37:04.290Z,16.90
2023-05-23T19:39:33.812Z,16.84
2023-05-23T19:42:01.410Z,16.77
2023-05-23T19:44:29.033Z,16.69
2023-05-23T19:47:24.946Z,16.63
2023-05-23T19:53:21.365Z,16.52
2023-05-23T19:56:01.850Z,16.46
2023-05-23T19:58:40.707Z,16.42
2023-05-23T20:01:13.899Z,16.37
2023-05-23T20:03:48.434Z,16.34
2023-05-23T20:06:39.656Z,16.28
2023-05-23T20:09:25.322Z,16.25
2023-05-23T20:12:03.671Z,16.21
2023-05-23T20:14:39.962Z,16.22
2023-05-23T20:17:26.935Z,16.21
2023-05-23T20:22:53.708Z,16.15
2023-05-23T20:25:31.788Z,16.12
2023-05-23T20:28:18.799Z,16.09
2023-05-23T20:30:55.924Z,16.08
2023-05-23T20:33:41.556Z,16.11
2023-05-23T20:36:09.651Z,16.14
2023-05-23T20:38:37.236Z,16.15
2023-05-23T20:41:06.662Z,16.12
2023-05-23T20:43:37.128Z,16.11
2023-05-23T20:46:06.127Z,16.10
2023-05-23T20:48:34.029Z,16.06
2023-05-23T20:51:02.024Z,16.04
2023-05-23T20:53:29.926Z,15.99
2023-05-23T20:55:57.524Z,15.93
2023-05-23T20:58:25.123Z,15.88
2023-05-23T21:00:54.376Z,15.84
2023-05-23T21:03:22.208Z,15.80
2023-05-23T21:05:49.879Z,15.79
2023-05-23T21:08:17.489Z,15.79
2023-05-23T21:10:48.048Z,15.75
2023-05-23T21:13:17.466Z,15.74
2023-05-23T21:15:45.101Z,15.71
2023-05-23T21:18:14.043Z,15.71
2023-05-23T21:20:41.902Z,15.66
2023-05-23T21:23:09.596Z,15.64
2023-05-23T21:25:37.243Z,15.63
2023-05-23T21:28:04.857Z,15.60
2023-05-23T21:30:32.546Z,15.60
2023-05-23T21:33:00.453Z,15.57
2023-05-23T21:35:29.444Z,15.54
2023-05-23T21:37:57.833Z,15.54
2023-05-23T21:40:26.807Z,15.55
2023-05-23T21:42:54.400Z,15.55
2023-05-23T21:45:22.216Z,15.55
2023-05-23T21:47:49.834Z,15.54
2023-05-23T21:50:17.575Z,15.50
2023-05-23T21:52:46.537Z,15.44
2023-05-23T21:55:14.157Z,15.40
2023-05-23T21:57:41.772Z,15.39
2023-05-23T22:00:12.527Z,15.36
2023-05-23T22:02:41.563Z,15.34
2023-05-23T22:05:09.442Z,15.35
2023-05-23T22:07:37.006Z,15.35
2023-05-23T22:10:06.732Z,15.32
2023-05-23T22:12:34.287Z,15.29
2023-05-23T22:15:01.869Z,15.24
2023-05-23T22:17:29.636Z,15.20
2023-05-23T22:19:58.106Z,15.17
2023-05-23T22:22:25.822Z,15.11
2023-05-23T22:24:53.678Z,15.12
2023-05-23T22:27:22.660Z,15.12
2023-05-23T22:29:50.223Z,15.09
2023-05-23T22:32:17.861Z,15.06
2023-05-23T22:34:46.107Z,15.03
2023-05-23T22:37:15.687Z,15.03
2023-05-23T22:39:43.390Z,15.01
2023-05-23T22:42:10.994Z,15.01
2023-05-23T22:44:39.969Z,14.99
2023-05-23T22:47:10.198Z,14.99
2023-05-23T22:49:37.861Z,14.98
2023-05-23T22:52:06.264Z,14.98
2023-05-23T22:54:33.823Z,14.96
2023-05-23T22:57:01.356Z,14.93
2023-05-23T22:59:30.814Z,14.90
2023-05-23T23:01:59.845Z,14.90
2023-05-23T23:04:30.871Z,14.87
2023-05-23T23:06:59.180Z,14.80
2023-05-23T23:09:27.184Z,14.74
2023-05-23T23:11:55.478Z,14.69
2023-05-23T23:14:23.080Z,14.64
2023-05-23T23:16:50.686Z,14.62
2023-05-23T23:19:19.798Z,14.57
2023-05-23T23:21:47.387Z,14.52
2023-05-23T23:24:15.022Z,14.46
2023-05-23T23:26:42.600Z,14.43
2023-05-23T23:29:10.381Z,14.41
2023-05-23T23:31:38.000Z,14.37
2023-05-23T23:34:05.630Z,14.32
2023-05-23T23:36:34.578Z,14.29
2023-05-23T23:39:02.191Z,14.26
2023-05-23T23:41:29.805Z,14.23
2023-05-23T23:43:57.367Z,14.20
2023-05-23T23:46:24.978Z,14.20
2023-05-23T23:48:52.663Z,14.21
2023-05-23T23:51:20.340Z,14.18
2023-05-23T23:53:51.652Z,14.17
2023-05-23T23:56:22.208Z,14.18
2023-05-23T23:58:49.870Z,14.18
